createdAt,value
2019-04-30T00:04:07.639Z,82.25
2019-04-30T00:09:29.805Z,81.78
2019-04-30T00:14:51.948Z,81.54
2019-04-30T00:20:15.147Z,81.92
2019-04-30T00:25:37.633Z,81.54
2019-04-30T00:30:58.899Z,81.45
2019-04-30T00:36:20.746Z,81.00
2019-04-30T00:41:44.045Z,80.84
2019-04-30T00:47:08.244Z,80.80
2019-04-30T00:52:33.954Z,80.40
2019-04-30T00:57:53.790Z,80.49
2019-04-30T01:03:20.583Z,81.09
2019-04-30T01:08:42.307Z,81.38
2019-04-30T01:14:04.057Z,81.72
2019-04-30T01:19:30.112Z,81.29
2019-04-30T01:24:49.765Z,81.47
2019-04-30T01:30:13.255Z,81.31
2019-04-30T01:35:34.849Z,81.43
2019-04-30T01:40:56.795Z,81.54
2019-04-30T01:46:18.941Z,81.32
2019-04-30T01:51:42.587Z,81.71
2019-04-30T01:57:29.355Z,81.37
2019-04-30T02:02:51.231Z,81.02
2019-04-30T02:08:12.889Z,81.46
2019-04-30T02:13:34.723Z,81.12
2019-04-30T02:18:56.685Z,81.08
2019-04-30T02:24:19.176Z,80.66
2019-04-30T02:29:41.087Z,81.00
2019-04-30T02:35:25.303Z,81.07
2019-04-30T02:40:49.647Z,81.02
2019-04-30T02:46:13.664Z,80.76
2019-04-30T02:51:36.669Z,80.60
2019-04-30T02:57:14.124Z,80.44
2019-04-30T03:02:35.941Z,80.59
2019-04-30T03:07:59.988Z,81.00
2019-04-30T03:13:21.209Z,81.08
2019-04-30T03:19:00.861Z,81.60
2019-04-30T03:24:22.972Z,81.50
2019-04-30T03:29:44.842Z,81.24
2019-04-30T03:35:06.494Z,81.05
2019-04-30T03:40:30.173Z,80.51
2019-04-30T03:45:52.145Z,79.85
2019-04-30T03:51:14.324Z,79.72
2019-04-30T03:56:36.384Z,79.22
2019-04-30T04:02:12.236Z,79.39
2019-04-30T04:07:53.931Z,79.00
2019-04-30T04:13:16.076Z,78.66
2019-04-30T04:18:40.112Z,78.51
2019-04-30T04:24:01.371Z,78.41
2019-04-30T04:29:22.856Z,78.39
2019-04-30T04:34:45.057Z,77.94
2019-04-30T04:40:09.335Z,78.21
2019-04-30T04:45:30.792Z,77.92
2019-04-30T04:50:52.591Z,77.69
2019-04-30T04:56:14.323Z,77.32
2019-04-30T05:01:36.072Z,76.60
2019-04-30T05:07:00.060Z,75.46
2019-04-30T05:12:21.602Z,75.56
2019-04-30T05:17:43.137Z,74.81
2019-04-30T05:23:04.842Z,74.13
2019-04-30T05:28:26.383Z,73.41
2019-04-30T05:33:48.920Z,72.74
2019-04-30T05:39:10.402Z,71.32
2019-04-30T05:44:32.833Z,70.06
2019-04-30T05:49:54.835Z,68.71
2019-04-30T05:55:16.167Z,67.45
2019-04-30T06:00:39.948Z,65.24
2019-04-30T06:06:01.279Z,64.41
2019-04-30T06:11:41.260Z,63.24
2019-04-30T06:17:09.760Z,60.22
2019-04-30T06:22:31.742Z,60.82
2019-04-30T06:27:53.448Z,60.01
2019-04-30T06:33:15.119Z,59.88
2019-04-30T06:38:38.586Z,61.16
2019-04-30T06:44:00.515Z,61.42
2019-04-30T06:49:24.598Z,61.81
2019-04-30T06:54:46.395Z,61.41
2019-04-30T07:00:09.837Z,61.13
2019-04-30T07:05:31.710Z,60.28
2019-04-30T07:11:11.453Z,60.18
2019-04-30T07:16:33.051Z,59.19
2019-04-30T07:21:54.951Z,58.26
2019-04-30T07:27:21.768Z,58.18
2019-04-30T07:32:40.298Z,58.00
2019-04-30T07:38:04.937Z,57.73
2019-04-30T07:43:25.842Z,57.25
2019-04-30T07:48:49.964Z,55.80
2019-04-30T07:54:11.410Z,55.06
2019-04-30T07:59:32.929Z,54.95
2019-04-30T08:05:06.534Z,55.57
2019-04-30T08:10:29.702Z,53.54
2019-04-30T08:15:51.255Z,53.14
2019-04-30T08:21:12.488Z,53.88
2019-04-30T08:26:34.088Z,52.83
2019-04-30T08:31:56.012Z,53.66
2019-04-30T08:37:20.123Z,54.95
2019-04-30T08:42:41.433Z,53.87
2019-04-30T08:48:02.973Z,53.23
2019-04-30T08:53:29.798Z,51.88
2019-04-30T08:58:49.109Z,52.54
2019-04-30T09:04:10.802Z,52.31
2019-04-30T09:09:32.354Z,51.40
2019-04-30T09:14:53.992Z,52.83
2019-04-30T09:20:15.572Z,52.10
2019-04-30T09:25:37.314Z,52.62
2019-04-30T09:30:58.856Z,51.60
2019-04-30T09:36:20.957Z,50.43
2019-04-30T09:41:42.541Z,49.39
2019-04-30T09:47:04.495Z,50.63
2019-04-30T09:52:26.301Z,49.39
2019-04-30T09:57:48.936Z,48.62
2019-04-30T10:03:11.514Z,46.35
2019-04-30T10:08:47.469Z,45.72
2019-04-30T10:14:00.779Z,47.17
2019-04-30T10:19:29.272Z,46.56
2019-04-30T10:24:52.448Z,46.58
2019-04-30T10:30:21.208Z,46.45
2019-04-30T10:35:44.091Z,45.88
2019-04-30T10:46:33.418Z,46.54
2019-04-30T10:51:54.812Z,44.60
2019-04-30T10:57:18.377Z,44.21
2019-04-30T11:02:44.016Z,45.26
2019-04-30T11:08:05.854Z,44.54
2019-04-30T11:13:27.850Z,44.25
2019-04-30T11:18:49.889Z,44.39
2019-04-30T11:24:11.748Z,43.90
2019-04-30T11:29:33.617Z,42.97
2019-04-30T11:34:55.204Z,44.03
2019-04-30T11:40:31.189Z,41.46
2019-04-30T11:46:21.818Z,42.29
2019-04-30T11:51:43.676Z,41.49
2019-04-30T11:57:05.662Z,40.92
2019-04-30T12:02:41.601Z,40.29
2019-04-30T12:08:35.194Z,40.28
2019-04-30T12:13:57.084Z,37.09
2019-04-30T12:19:18.933Z,35.29
2019-04-30T12:24:40.540Z,29.50
2019-04-30T12:30:02.239Z,32.54
2019-04-30T12:35:23.852Z,30.80
2019-04-30T12:40:45.555Z,31.76
2019-04-30T12:46:08.307Z,31.64
2019-04-30T12:51:45.571Z,32.79
2019-04-30T12:57:21.310Z,32.69
2019-04-30T13:02:43.459Z,32.78
2019-04-30T13:08:05.602Z,31.67
2019-04-30T13:13:31.446Z,31.35
2019-04-30T13:18:51.253Z,32.18
2019-04-30T13:24:13.312Z,31.87
2019-04-30T13:29:46.599Z,30.68
2019-04-30T13:35:09.286Z,29.76
2019-04-30T13:40:41.453Z,29.25
2019-04-30T13:46:03.348Z,28.11
2019-04-30T13:51:24.876Z,29.08
2019-04-30T13:56:46.397Z,29.51
2019-04-30T14:02:08.811Z,31.56
2019-04-30T14:07:52.832Z,32.05
2019-04-30T14:13:14.928Z,32.19
2019-04-30T14:18:36.156Z,33.77
2019-04-30T14:23:59.484Z,33.75
2019-04-30T14:29:21.967Z,34.78
2019-04-30T14:34:43.854Z,34.82
2019-04-30T14:40:06.938Z,36.56
2019-04-30T14:45:36.667Z,36.98
2019-04-30T14:50:58.666Z,38.64
2019-04-30T14:56:29.499Z,39.05
2019-04-30T15:02:10.610Z,39.36
2019-04-30T15:07:32.732Z,42.71
2019-04-30T15:12:54.267Z,45.29
2019-04-30T15:18:16.074Z,49.49
2019-04-30T15:24:03.419Z,52.59
2019-04-30T15:29:25.044Z,52.59
2019-04-30T15:34:46.501Z,54.53
2019-04-30T15:40:09.105Z,54.53
2019-04-30T15:45:31.304Z,54.22
2019-04-30T15:50:52.949Z,55.38
2019-04-30T15:56:14.811Z,58.30
2019-04-30T16:01:36.707Z,59.45
2019-04-30T16:06:58.627Z,59.58
2019-04-30T16:12:28.639Z,59.45
2019-04-30T16:17:52.719Z,58.48
2019-04-30T16:23:14.313Z,56.95
2019-04-30T16:28:36.100Z,56.95
2019-04-30T16:33:58.189Z,56.51
2019-04-30T16:39:19.593Z,56.45
2019-04-30T16:44:41.689Z,56.32
2019-04-30T16:50:05.276Z,56.10
2019-04-30T16:55:27.197Z,56.44
2019-04-30T17:00:50.173Z,56.44
2019-04-30T17:06:16.097Z,56.68
2019-04-30T17:11:55.792Z,57.63
2019-04-30T17:17:17.466Z,57.99
2019-04-30T17:22:39.516Z,58.37
2019-04-30T17:28:01.712Z,58.32
2019-04-30T17:33:23.275Z,58.63
2019-04-30T17:38:45.416Z,57.52
2019-04-30T17:44:08.777Z,57.84
2019-04-30T17:49:30.337Z,56.97
2019-04-30T17:54:51.674Z,56.88
2019-04-30T18:00:19.275Z,55.67
2019-04-30T18:05:39.830Z,59.41
2019-04-30T18:11:01.325Z,69.36
2019-04-30T18:16:22.897Z,73.82
2019-04-30T18:21:52.079Z,75.81
2019-04-30T18:27:23.030Z,77.23
2019-04-30T18:32:45.083Z,78.82
2019-04-30T18:38:06.364Z,75.92
2019-04-30T18:43:28.727Z,70.66
2019-04-30T18:48:52.788Z,72.92
2019-04-30T18:54:14.360Z,73.29
2019-04-30T18:59:35.739Z,72.14
2019-04-30T19:04:59.432Z,73.05
2019-04-30T19:10:51.734Z,71.61
2019-04-30T19:16:31.587Z,68.10
2019-04-30T19:21:53.828Z,65.44
2019-04-30T19:27:15.674Z,64.14
2019-04-30T19:32:39.039Z,63.43
2019-04-30T19:38:01.008Z,64.50
2019-04-30T19:43:22.498Z,66.15
2019-04-30T19:48:44.502Z,67.13
2019-04-30T19:54:06.133Z,67.72
2019-04-30T19:59:29.431Z,68.75
2019-04-30T20:04:51.525Z,68.65
2019-04-30T20:10:13.527Z,69.91
2019-04-30T20:15:35.269Z,68.79
2019-04-30T20:21:00.866Z,68.48
2019-04-30T20:26:23.079Z,69.27
2019-04-30T20:31:44.874Z,70.12
2019-04-30T20:37:06.781Z,70.73
2019-04-30T20:42:32.791Z,69.05
2019-04-30T20:47:55.044Z,67.45
2019-04-30T20:53:17.095Z,70.92
2019-04-30T20:58:39.101Z,72.54
2019-04-30T21:04:02.533Z,72.75
2019-04-30T21:09:24.086Z,74.64
2019-04-30T21:14:45.956Z,73.80
2019-04-30T21:20:09.670Z,71.01
2019-04-30T21:25:31.429Z,69.04
2019-04-30T21:30:53.151Z,69.55
2019-04-30T21:36:18.915Z,67.77
2019-04-30T21:41:40.889Z,68.97
2019-04-30T21:47:02.424Z,67.43
2019-04-30T21:52:27.334Z,67.71
2019-04-30T21:57:49.650Z,70.13
2019-04-30T22:03:11.459Z,72.28
2019-04-30T22:08:32.826Z,73.00
2019-04-30T22:13:54.525Z,73.32
2019-04-30T22:19:16.274Z,72.77
2019-04-30T22:24:38.852Z,71.86
2019-04-30T22:30:00.868Z,72.79
2019-04-30T22:35:54.382Z,75.84
2019-04-30T22:41:16.527Z,76.09
2019-04-30T22:46:39.372Z,75.93
2019-04-30T22:52:01.222Z,75.09
2019-04-30T22:57:22.774Z,74.37
2019-04-30T23:02:59.606Z,76.16
2019-04-30T23:08:21.482Z,77.30
2019-04-30T23:13:43.174Z,78.11
2019-04-30T23:19:04.617Z,78.22
2019-04-30T23:24:26.175Z,78.33
2019-04-30T23:29:48.307Z,78.73
2019-04-30T23:35:10.014Z,79.86
2019-04-30T23:40:47.117Z,80.36
2019-04-30T23:46:08.900Z,80.55
2019-04-30T23:51:30.296Z,80.61
2019-04-30T23:56:53.051Z,80.49
